Time;durP1;ratioP1;P1;durP2;ratioP2;P2;SDS_P1;SDS_P2;PMS_P1;PMS_P2;Temp;Humidity;BMP_temperature;BMP_pressure;BME280_temperature;BME280_humidity;BME280_pressure;Samples;Min_cycle;Max_cycle;Signal;HPM_P1;HPM_P2
2022/11/02 00:01:14;;;;;;;13.32;2.88;;;;;;;10.57;72.16;99086.72;5023544;28;20030;-80
2022/11/02 00:03:39;;;;;;;10.45;2.97;;;;;;;10.66;72.21;99099.69;5000711;28;20109;-81
2022/11/02 00:06:05;;;;;;;9.07;3.00;;;;;;;10.16;73.15;99081.75;4999773;28;20124;-81
2022/11/02 00:08:30;;;;;;;17.33;3.58;;;;;;;10.72;71.32;99094.19;5022560;28;20516;-81
2022/11/02 00:10:55;;;;;;;11.85;2.78;;;;;;;10.36;72.11;99099.97;5019661;28;20030;-81
2022/11/02 00:13:21;;;;;;;12.10;2.45;;;;;;;9.91;74.11;99091.13;5000902;28;20045;-81
2022/11/02 00:15:46;;;;;;;12.55;2.38;;;;;;;10.28;72.66;99095.84;5018380;28;20053;-81
2022/11/02 00:18:13;;;;;;;13.13;2.90;;;;;;;9.61;73.18;99089.47;5006000;28;20065;-80
2022/11/02 00:20:42;;;;;;;6.15;2.67;;;;;;;10.00;74.10;99085.16;5014599;28;20029;-80
2022/11/02 00:23:11;;;;;;;5.82;2.78;;;;;;;10.30;72.25;99084.94;5017345;28;20030;-81
2022/11/02 00:25:49;;;;;;;12.55;3.20;;;;;;;9.84;73.74;99072.59;5018334;28;20029;-81
2022/11/02 00:28:15;;;;;;;17.92;3.10;;;;;;;9.55;73.33;99062.94;5004266;28;20057;-81
2022/11/02 00:30:41;;;;;;;12.50;2.85;;;;;;;9.38;73.63;99000.81;5003272;28;20028;-81
2022/11/02 00:33:07;;;;;;;8.82;2.63;;;;;;;10.10;72.18;99074.69;5023041;28;20041;-81
2022/11/02 00:35:33;;;;;;;15.55;3.00;;;;;;;10.34;71.25;99057.53;5014114;28;20033;-81
2022/11/02 00:37:59;;;;;;;12.05;2.75;;;;;;;10.29;72.28;99076.09;5016146;28;20027;-81
2022/11/02 00:40:24;;;;;;;9.77;2.60;;;;;;;9.89;73.60;99071.88;5001866;28;20164;-81
2022/11/02 00:42:49;;;;;;;12.57;2.67;;;;;;;10.13;73.25;99068.91;5020163;28;20029;-81
2022/11/02 00:45:15;;;;;;;11.55;2.53;;;;;;;9.34;74.93;99069.72;5024537;28;20041;-80
2022/11/02 00:47:40;;;;;;;17.00;3.08;;;;;;;9.27;75.79;99065.56;4998803;28;20033;-80
2022/11/02 00:50:06;;;;;;;8.93;3.25;;;;;;;9.72;74.19;99061.97;5022004;28;20030;-80
2022/11/02 00:52:31;;;;;;;17.75;3.40;;;;;;;9.17;75.12;99058.19;5027399;28;20151;-80
2022/11/02 00:54:57;;;;;;;9.18;3.70;;;;;;;9.34;75.44;99042.28;4985625;28;20021;-81
2022/11/02 00:57:22;;;;;;;10.13;2.72;;;;;;;9.35;76.67;99059.91;5009971;28;20033;-81
2022/11/02 00:59:48;;;;;;;16.65;3.40;;;;;;;8.87;77.07;99052.19;5027560;28;20037;-81
2022/11/02 01:02:13;;;;;;;13.32;3.08;;;;;;;9.21;76.61;99051.34;5006703;28;20038;-81
2022/11/02 01:04:39;;;;;;;13.40;3.70;;;;;;;9.16;76.96;99042.44;5004448;28;20032;-81
2022/11/02 01:07:04;;;;;;;17.00;4.97;;;;;;;9.53;75.77;99041.88;5019051;28;20037;-80
2022/11/02 01:09:30;;;;;;;13.07;3.03;;;;;;;9.67;75.14;99026.44;5020843;28;20025;-81
2022/11/02 01:11:56;;;;;;;13.13;3.85;;;;;;;9.93;74.01;99023.19;5024174;28;20449;-81
2022/11/02 01:14:21;;;;;;;13.48;3.60;;;;;;;9.74;74.64;99029.75;5004751;28;20664;-83
2022/11/02 01:16:47;;;;;;;10.88;2.83;;;;;;;9.80;74.86;99040.28;5027133;28;20116;-80
2022/11/02 01:19:13;;;;;;;14.85;2.80;;;;;;;9.74;74.67;99043.88;5019721;28;20642;-81
2022/11/02 01:21:38;;;;;;;8.13;2.53;;;;;;;10.09;74.37;99030.38;5009955;28;20058;-81
2022/11/02 01:24:04;;;;;;;12.23;2.30;;;;;;;9.96;74.77;99041.34;5019481;28;20030;-81
2022/11/02 01:26:29;;;;;;;13.10;2.78;;;;;;;9.89;74.59;99013.22;5009102;28;20034;-81
2022/11/02 01:28:54;;;;;;;11.38;3.03;;;;;;;9.78;75.38;99007.69;5012149;28;20118;-81
2022/11/02 01:31:20;;;;;;;8.70;2.70;;;;;;;9.99;75.22;99021.41;5008266;28;20066;-81
2022/11/02 01:33:46;;;;;;;15.88;3.33;;;;;;;9.75;74.82;99007.38;5019094;28;20025;-81
2022/11/02 01:36:14;;;;;;;14.48;3.10;;;;;;;9.86;75.00;99041.16;5020513;28;20030;-83
2022/11/02 01:38:40;;;;;;;12.10;3.30;;;;;;;9.88;74.93;99028.41;5006798;28;20044;-81
2022/11/02 01:41:06;;;;;;;15.88;2.88;;;;;;;10.11;74.62;99030.97;5024181;28;20424;-81
2022/11/02 01:43:34;;;;;;;9.55;2.33;;;;;;;10.05;74.07;99023.91;4999084;28;20417;-81
2022/11/02 01:46:09;;;;;;;16.00;3.83;;;;;;;9.99;74.62;99024.06;5026342;28;20075;-81
2022/11/02 01:48:36;;;;;;;14.65;2.83;;;;;;;10.01;75.21;99016.63;5026988;28;20393;-82
2022/11/02 01:51:08;;;;;;;12.27;3.50;;;;;;;9.90;74.57;98998.84;5024052;28;20028;-81
2022/11/02 01:53:36;;;;;;;15.32;3.88;;;;;;;9.95;74.70;98994.41;5020893;28;20029;-81
2022/11/02 01:56:03;;;;;;;9.65;2.40;;;;;;;10.09;74.71;98990.38;5022590;28;20033;-81
2022/11/02 01:58:29;;;;;;;14.15;2.50;;;;;;;10.15;74.88;98993.97;5022031;28;20760;-80
2022/11/02 02:00:56;;;;;;;12.48;2.83;;;;;;;10.13;73.81;98964.91;5018746;28;20065;-81
2022/11/02 02:03:21;;;;;;;12.35;2.97;;;;;;;10.00;75.11;98967.03;4995475;28;20345;-80
2022/11/02 02:06:08;;;;;;;12.10;3.10;;;;;;;10.18;74.28;98986.28;5023342;28;20037;-81
2022/11/02 02:08:38;;;;;;;11.48;3.30;;;;;;;10.13;74.64;98972.91;5023341;28;20056;-81
2022/11/02 02:11:23;;;;;;;13.65;2.50;;;;;;;10.21;74.57;98979.66;5022311;28;20489;-81
2022/11/02 02:13:48;;;;;;;22.98;2.75;;;;;;;10.17;74.44;98963.34;5021581;28;20043;-83
2022/11/02 02:16:26;;;;;;;9.63;2.47;;;;;;;10.16;74.22;98960.91;5004150;28;20037;-83
2022/11/02 02:19:00;;;;;;;9.20;2.65;;;;;;;10.02;74.99;98959.59;5017689;28;20504;-83
2022/11/02 02:21:37;;;;;;;8.82;2.47;;;;;;;10.32;74.45;98984.94;5003615;28;20032;-82
2022/11/02 02:24:13;;;;;;;12.13;2.60;;;;;;;10.20;74.67;98978.06;5010945;28;20536;-83
2022/11/02 02:27:04;;;;;;;10.93;2.70;;;;;;;10.22;74.59;98973.28;5022773;28;20022;-83
2022/11/02 02:30:00;;;;;;;8.05;2.55;;;;;;;10.19;75.27;98977.25;5020452;28;20029;-83
2022/11/02 02:32:39;;;;;;;12.35;3.00;;;;;;;10.28;74.69;98972.31;5021419;28;20033;-83
2022/11/02 02:35:25;;;;;;;10.38;3.05;;;;;;;10.14;74.98;98957.69;5018205;28;20033;-80
2022/11/02 02:37:59;;;;;;;11.23;3.83;;;;;;;10.18;75.24;98964.94;5020966;28;20029;-82
2022/11/02 02:40:28;;;;;;;15.48;2.65;;;;;;;10.39;74.33;98969.56;5024100;28;20036;-83
2022/11/02 02:43:05;;;;;;;13.73;2.75;;;;;;;10.21;74.88;98955.66;5018278;28;20176;-83
2022/11/02 02:45:44;;;;;;;16.17;2.78;;;;;;;10.30;74.31;98963.03;5024663;28;20127;-82
2022/11/02 02:48:15;;;;;;;13.63;2.90;;;;;;;10.29;74.71;98961.41;5021768;28;21145;-83
2022/11/02 02:50:47;;;;;;;8.50;2.63;;;;;;;10.27;75.05;98952.81;5025670;28;20539;-83
2022/11/02 02:53:15;;;;;;;21.13;3.67;;;;;;;10.37;74.62;98958.34;5023769;28;20183;-83
2022/11/02 02:55:44;;;;;;;10.82;3.15;;;;;;;10.18;74.81;98946.28;5023524;28;20029;-82
2022/11/02 02:58:17;;;;;;;9.07;2.95;;;;;;;10.21;74.83;98959.16;5022379;28;20067;-82
2022/11/02 03:00:43;;;;;;;9.48;2.67;;;;;;;10.09;75.77;98958.38;5019588;28;20532;-83
2022/11/02 03:03:14;;;;;;;12.13;3.28;;;;;;;10.00;75.59;98927.84;5002621;28;20065;-82
2022/11/02 03:05:40;;;;;;;11.98;2.90;;;;;;;10.31;75.24;98956.63;5021082;28;20025;-83
2022/11/02 03:08:12;;;;;;;15.63;3.63;;;;;;;9.77;77.00;98928.78;5021559;28;20052;-83
2022/11/02 03:10:46;;;;;;;15.10;3.25;;;;;;;10.20;75.03;98935.38;5022940;28;20133;-83
2022/11/02 03:13:32;;;;;;;16.33;3.42;;;;;;;10.18;76.01;98951.63;5021419;28;20029;-82
2022/11/02 03:16:04;;;;;;;15.75;2.42;;;;;;;9.87;76.01;98895.38;5023802;28;20448;-83
2022/11/02 03:18:47;;;;;;;9.05;2.80;;;;;;;10.20;75.01;98927.38;5023245;28;20120;-82
2022/11/02 03:21:42;;;;;;;15.63;2.83;;;;;;;10.26;75.51;98945.06;5021013;28;20520;-82
2022/11/02 03:24:10;;;;;;;12.63;3.15;;;;;;;10.22;75.25;98936.75;5023461;28;20036;-82
2022/11/02 03:26:49;;;;;;;12.60;2.45;;;;;;;10.12;75.15;98919.78;5018384;28;20037;-82
2022/11/02 03:29:23;;;;;;;13.15;3.35;;;;;;;10.04;75.75;98915.66;5004303;28;20389;-82
2022/11/02 03:31:57;;;;;;;12.00;2.83;;;;;;;10.18;75.14;98943.63;5020077;28;20029;-82
2022/11/02 03:34:25;;;;;;;10.75;3.05;;;;;;;10.27;75.21;98952.81;5003249;28;20037;-82
2022/11/02 03:37:01;;;;;;;11.05;2.75;;;;;;;10.18;75.22;98951.63;5019927;28;20058;-82
2022/11/02 03:39:38;;;;;;;12.50;2.53;;;;;;;10.21;75.81;98966.34;5003229;28;20041;-82
2022/11/02 03:42:05;;;;;;;10.27;2.53;;;;;;;10.32;75.96;98968.09;5003709;28;20065;-82
2022/11/02 03:44:36;;;;;;;12.50;2.42;;;;;;;10.12;75.50;98965.13;5008187;28;20399;-82
2022/11/02 03:47:04;;;;;;;14.20;3.35;;;;;;;10.20;75.71;98967.41;5023610;28;20032;-82
2022/11/02 03:49:31;;;;;;;20.38;3.55;;;;;;;10.14;75.20;98953.16;5023565;28;20071;-82
2022/11/02 03:52:03;;;;;;;24.17;3.80;;;;;;;10.09;75.89;98961.03;5023673;28;20033;-82
2022/11/02 03:54:48;;;;;;;11.10;3.92;;;;;;;10.14;75.36;98971.81;5020866;28;20029;-83
2022/11/02 03:57:22;;;;;;;16.90;3.58;;;;;;;10.22;75.93;98975.97;5010481;28;20098;-82
2022/11/02 03:59:48;;;;;;;13.43;3.22;;;;;;;10.24;76.10;98984.53;5002447;28;20033;-82
2022/11/02 04:02:14;;;;;;;19.05;4.25;;;;;;;10.09;76.15;98954.91;5020145;28;20547;-82
2022/11/02 04:04:51;;;;;;;7.97;2.67;;;;;;;9.95;76.45;98948.28;4998202;28;20512;-82
2022/11/02 04:07:21;;;;;;;7.75;2.85;;;;;;;10.23;75.64;98959.72;4998708;28;20029;-83
2022/11/02 04:09:46;;;;;;;10.23;2.72;;;;;;;10.30;75.25;98979.03;4983126;28;20125;-82
2022/11/02 04:14:56;;;;;;;17.45;2.97;;;;;;;10.19;75.79;98973.78;5002703;28;20036;-82
2022/11/02 04:20:05;;;;;;;10.98;2.60;;;;;;;10.38;75.92;98980.47;5001757;28;20092;-82
2022/11/02 04:25:18;;;;;;;19.40;4.35;;;;;;;10.24;75.88;98971.97;5017721;28;20044;-82
2022/11/02 04:27:46;;;;;;;7.82;2.88;;;;;;;10.21;75.97;98980.47;5021659;28;20033;-81
2022/11/02 04:30:13;;;;;;;10.77;3.10;;;;;;;10.34;76.00;98988.16;5002662;28;20098;-82
2022/11/02 04:35:24;;;;;;;14.23;2.83;;;;;;;10.27;75.95;98979.50;5017820;28;20412;-81
2022/11/02 04:40:33;;;;;;;11.30;2.80;;;;;;;10.33;76.58;98999.88;5026052;28;20052;-81
2022/11/02 04:42:59;;;;;;;15.23;3.20;;;;;;;10.43;76.05;99004.56;5015310;28;20025;-81
2022/11/02 04:45:24;;;;;;;10.98;2.63;;;;;;;10.23;76.35;98999.72;5023137;28;20048;-81
2022/11/02 04:47:50;;;;;;;10.98;2.55;;;;;;;10.38;76.33;99005.28;5025763;28;20060;-81
2022/11/02 04:50:15;;;;;;;9.90;2.63;;;;;;;10.32;76.37;98990.25;5021234;28;20033;-81
2022/11/02 04:52:40;;;;;;;17.98;3.28;;;;;;;10.41;76.78;99007.50;5006359;28;20056;-81
2022/11/02 04:55:06;;;;;;;13.23;3.35;;;;;;;10.32;76.88;98998.28;5025707;28;20033;-81
2022/11/02 04:57:32;;;;;;;16.88;3.60;;;;;;;10.32;76.40;99006.28;5007935;28;20048;-81
2022/11/02 04:59:57;;;;;;;8.43;3.33;;;;;;;10.21;76.35;98971.66;5009554;28;20493;-81
2022/11/02 05:02:22;;;;;;;8.68;2.30;;;;;;;10.16;76.52;98972.38;5006579;28;20547;-81
2022/11/02 05:04:48;;;;;;;14.32;3.83;;;;;;;10.34;76.90;98996.16;5010811;28;20476;-81
2022/11/02 05:07:13;;;;;;;11.13;3.38;;;;;;;10.23;77.06;98988.22;5004758;28;20438;-81
2022/11/02 05:09:41;;;;;;;11.15;3.63;;;;;;;10.11;77.83;98985.63;5004852;28;20040;-80
2022/11/02 05:12:07;;;;;;;12.48;2.75;;;;;;;10.14;77.04;98995.84;5011411;28;20033;-81
2022/11/02 05:14:32;;;;;;;12.13;3.00;;;;;;;10.11;77.57;98990.97;4989941;28;20064;-81
2022/11/02 05:16:58;;;;;;;7.95;2.50;;;;;;;10.19;77.67;99003.94;5007160;28;20359;-80
2022/11/02 05:19:23;;;;;;;17.90;3.17;;;;;;;10.13;77.78;98986.22;5011071;28;20044;-81
2022/11/02 05:21:49;;;;;;;11.27;3.28;;;;;;;10.22;77.39;99002.63;4984720;28;20474;-82
2022/11/02 05:24:14;;;;;;;18.90;3.17;;;;;;;9.97;77.98;98976.31;4986592;28;20095;-82
2022/11/02 05:26:40;;;;;;;13.20;3.85;;;;;;;10.05;78.02;98994.56;5017307;28;20132;-81
2022/11/02 05:29:06;;;;;;;11.48;3.50;;;;;;;10.11;78.49;98996.31;5002768;28;20049;-81
2022/11/02 05:31:31;;;;;;;18.90;3.60;;;;;;;10.17;78.07;99000.69;5013636;28;20021;-81
2022/11/02 05:33:57;;;;;;;8.63;2.40;;;;;;;9.95;79.06;98989.09;5004560;28;20037;-81
2022/11/02 05:36:22;;;;;;;11.77;3.13;;;;;;;10.15;78.89;99016.13;5021093;28;20564;-81
2022/11/02 05:38:54;;;;;;;9.52;3.05;;;;;;;10.01;78.58;98993.44;5007060;28;20026;-81
2022/11/02 05:41:20;;;;;;;15.73;3.63;;;;;;;10.11;78.41;99006.97;5028317;28;20044;-82
2022/11/02 05:43:45;;;;;;;8.88;2.67;;;;;;;10.11;78.76;99012.31;5023556;28;20046;-81
2022/11/02 05:46:13;;;;;;;9.48;2.97;;;;;;;9.97;79.41;98991.50;5021756;28;20080;-81
2022/11/02 05:48:39;;;;;;;13.15;3.30;;;;;;;10.03;79.41;99006.53;5014126;28;20508;-81
2022/11/02 05:51:05;;;;;;;8.98;2.78;;;;;;;9.96;78.91;98998.69;5029232;28;20029;-82
2022/11/02 05:53:32;;;;;;;14.32;3.10;;;;;;;10.05;79.06;99015.09;5031078;28;20120;-82
2022/11/02 05:55:59;;;;;;;11.95;3.45;;;;;;;10.00;79.44;98999.03;5011345;28;20030;-82
2022/11/02 05:58:25;;;;;;;9.82;2.97;;;;;;;9.90;79.40;98991.66;4996643;28;20064;-82
2022/11/02 06:00:50;;;;;;;14.23;3.58;;;;;;;10.03;79.62;99012.69;5026645;28;20032;-82
2022/11/02 06:03:16;;;;;;;8.15;3.10;;;;;;;9.96;79.27;99005.91;5008179;28;20080;-82
2022/11/02 06:05:42;;;;;;;13.18;3.53;;;;;;;9.91;79.92;99021.78;5010955;28;20048;-82
2022/11/02 06:08:07;;;;;;;10.02;3.22;;;;;;;9.97;79.56;99026.97;5020885;28;20108;-83
2022/11/02 06:10:33;;;;;;;15.07;4.50;;;;;;;10.02;79.50;99050.25;4996529;28;20148;-82
2022/11/02 06:13:00;;;;;;;17.83;3.83;;;;;;;9.96;79.47;99046.69;5028480;28;20026;-82
2022/11/02 06:15:27;;;;;;;10.18;2.85;;;;;;;10.06;79.69;99057.53;5027641;28;20021;-82
2022/11/02 06:17:52;;;;;;;8.82;3.25;;;;;;;9.90;79.53;99036.97;5023800;28;20033;-82
2022/11/02 06:20:19;;;;;;;12.82;3.75;;;;;;;10.02;80.16;99052.94;5002971;28;20040;-82
2022/11/02 06:22:44;;;;;;;9.70;3.15;;;;;;;9.96;80.02;99046.69;5028231;28;20068;-82
2022/11/02 06:25:10;;;;;;;15.68;3.67;;;;;;;9.95;79.84;99050.41;5011331;28;20033;-82
2022/11/02 06:27:36;;;;;;;15.27;3.70;;;;;;;9.92;79.80;99037.53;5012792;28;20457;-82
2022/11/02 06:30:02;;;;;;;13.60;4.63;;;;;;;9.86;80.37;99049.16;5025279;28;20539;-82
2022/11/02 06:32:27;;;;;;;16.52;3.70;;;;;;;9.96;79.85;99069.88;5023714;28;20024;-82
2022/11/02 06:34:53;;;;;;;13.07;3.67;;;;;;;9.87;79.87;99056.13;5027638;28;20469;-82
2022/11/02 06:37:18;;;;;;;10.60;3.08;;;;;;;9.86;79.52;99054.50;5009196;28;20037;-82
2022/11/02 06:39:44;;;;;;;11.18;3.25;;;;;;;9.99;79.76;99058.72;5009499;28;20041;-83
2022/11/02 06:42:09;;;;;;;11.18;4.80;;;;;;;10.02;79.57;99066.25;4995868;28;20125;-82
2022/11/02 06:44:34;;;;;;;10.60;2.97;;;;;;;10.11;80.14;99076.31;5025095;28;20041;-81
2022/11/02 06:47:00;;;;;;;13.90;4.13;;;;;;;10.07;79.79;99063.69;4994821;28;20087;-82
2022/11/02 06:49:25;;;;;;;8.88;2.60;;;;;;;10.04;79.41;99058.81;5023828;28;20072;-82
2022/11/02 06:51:50;;;;;;;11.02;3.03;;;;;;;10.16;79.20;99087.06;5007845;28;20538;-82
2022/11/02 06:54:16;;;;;;;10.20;3.65;;;;;;;10.16;79.48;99094.25;5022851;28;20623;-82
2022/11/02 06:56:41;;;;;;;13.10;3.20;;;;;;;10.09;79.69;99061.59;5030232;28;20121;-82
2022/11/02 06:59:07;;;;;;;16.77;3.72;;;;;;;10.17;79.39;99091.38;5030505;28;20040;-82
2022/11/02 07:01:33;;;;;;;10.70;3.60;;;;;;;10.21;79.04;99089.03;5023429;28;20021;-81
2022/11/02 07:03:59;;;;;;;12.23;3.47;;;;;;;10.14;78.92;99075.03;5033999;28;20042;-82
2022/11/02 07:06:25;;;;;;;11.60;3.47;;;;;;;10.26;79.07;99097.94;5003592;28;20062;-81
2022/11/02 07:08:50;;;;;;;7.82;3.35;;;;;;;10.23;79.36;99087.75;5012374;28;20489;-82
2022/11/02 07:11:15;;;;;;;12.00;2.78;;;;;;;10.22;78.67;99086.13;4992839;28;20053;-83
2022/11/02 07:13:41;;;;;;;12.13;3.40;;;;;;;10.16;78.80;99095.09;5011332;28;20024;-81
2022/11/02 07:16:07;;;;;;;11.10;3.15;;;;;;;10.36;78.33;99115.97;5026645;28;20029;-82
2022/11/02 07:18:32;;;;;;;6.10;3.53;;;;;;;10.16;79.17;99084.41;5027626;28;20509;-82
2022/11/02 07:20:58;;;;;;;10.13;2.80;;;;;;;10.26;78.85;99107.81;5026050;28;20041;-82
2022/11/02 07:23:24;;;;;;;7.60;2.63;;;;;;;10.33;78.54;99106.59;5028113;28;20029;-82
2022/11/02 07:25:50;;;;;;;8.77;2.83;;;;;;;10.35;78.93;99125.84;5032296;28;20038;-82
2022/11/02 07:28:15;;;;;;;10.85;3.33;;;;;;;10.22;79.11;99115.47;5010005;28;20039;-81
2022/11/02 07:30:40;;;;;;;15.13;3.22;;;;;;;10.31;79.41;99132.69;5009653;28;20059;-82
2022/11/02 07:33:06;;;;;;;11.88;3.42;;;;;;;10.30;78.94;99139.09;5033777;28;20107;-82
2022/11/02 07:35:33;;;;;;;20.02;5.53;;;;;;;10.28;79.00;99124.38;5013401;28;20083;-82
2022/11/02 07:38:00;;;;;;;9.27;3.45;;;;;;;10.21;79.31;99115.69;5026876;28;20660;-81
2022/11/02 07:40:27;;;;;;;8.80;3.75;;;;;;;10.32;79.04;99133.50;5027500;28;20481;-82
2022/11/02 07:42:52;;;;;;;13.63;3.20;;;;;;;10.35;78.52;99135.72;4995455;28;20033;-82
2022/11/02 07:45:20;;;;;;;9.63;2.30;;;;;;;10.35;78.36;99133.84;4983742;28;20150;-81
2022/11/02 07:47:46;;;;;;;11.75;3.58;;;;;;;10.19;79.00;99126.63;5023299;28;20057;-81
2022/11/02 07:50:14;;;;;;;14.07;3.45;;;;;;;10.34;78.42;99140.22;5024090;28;20112;-82
2022/11/02 07:52:46;;;;;;;6.82;2.92;;;;;;;10.37;78.29;99145.09;5007990;28;20026;-82
2022/11/02 07:55:16;;;;;;;16.02;3.65;;;;;;;10.25;78.88;99127.50;4987733;28;20048;-82
2022/11/02 07:57:42;;;;;;;16.95;3.75;;;;;;;10.35;77.91;99125.03;5023870;28;20514;-81
2022/11/02 08:00:10;;;;;;;6.97;3.28;;;;;;;10.35;78.61;99138.38;5018543;28;20029;-82
2022/11/02 08:02:35;;;;;;;11.10;2.65;;;;;;;10.31;78.47;99143.38;5011570;28;20041;-81
2022/11/02 08:05:01;;;;;;;12.25;3.65;;;;;;;10.45;78.14;99144.72;5010506;28;20033;-82
2022/11/02 08:07:26;;;;;;;13.48;3.45;;;;;;;10.29;78.27;99129.47;5013437;28;20068;-83
2022/11/02 08:09:51;;;;;;;8.20;3.05;;;;;;;10.47;78.96;99155.13;5035489;28;20447;-82
2022/11/02 08:12:17;;;;;;;8.93;2.50;;;;;;;10.43;77.60;99129.97;5022972;28;20034;-82
2022/11/02 08:14:42;;;;;;;13.10;3.00;;;;;;;10.66;77.59;99148.53;5011846;28;20126;-82
2022/11/02 08:17:07;;;;;;;7.88;3.17;;;;;;;10.47;77.68;99120.44;4991027;28;20091;-82
2022/11/02 08:19:33;;;;;;;17.73;3.45;;;;;;;10.66;77.33;99147.72;5010710;28;20030;-81
2022/11/02 08:21:58;;;;;;;11.27;2.70;;;;;;;10.52;77.52;99128.53;5030222;28;20053;-82
2022/11/02 08:24:23;;;;;;;9.13;2.92;;;;;;;10.60;77.27;99148.66;4983532;28;20068;-82
2022/11/02 08:26:49;;;;;;;10.05;3.33;;;;;;;10.57;77.67;99138.50;5033455;28;20026;-82
2022/11/02 08:29:14;;;;;;;9.85;2.63;;;;;;;10.55;77.52;99136.88;5018951;28;20041;-82
2022/11/02 08:31:39;;;;;;;11.88;3.10;;;;;;;10.51;77.06;99130.41;5031213;28;20164;-81
2022/11/02 08:34:05;;;;;;;8.45;2.67;;;;;;;10.70;77.20;99162.22;5013034;28;20389;-81
2022/11/02 08:36:30;;;;;;;9.05;2.50;;;;;;;10.66;77.28;99148.53;5015191;28;20132;-82
2022/11/02 08:38:55;;;;;;;10.35;2.72;;;;;;;10.66;77.22;99164.53;5026826;28;20048;-82
2022/11/02 08:41:21;;;;;;;9.48;2.85;;;;;;;10.60;76.96;99149.50;5032445;28;20490;-82
2022/11/02 08:43:46;;;;;;;7.97;2.75;;;;;;;10.70;77.58;99176.38;5022474;28;20096;-82
2022/11/02 08:46:12;;;;;;;11.07;3.13;;;;;;;10.63;77.69;99149.03;5009720;28;20029;-82
2022/11/02 08:48:37;;;;;;;16.40;4.07;;;;;;;10.69;77.37;99157.91;5029032;28;20466;-82
2022/11/02 08:51:04;;;;;;;7.80;2.63;;;;;;;10.63;77.34;99167.72;5013932;28;20477;-82
2022/11/02 08:53:29;;;;;;;11.55;2.95;;;;;;;10.77;77.32;99173.56;5027296;28;20122;-82
2022/11/02 08:55:58;;;;;;;10.13;3.30;;;;;;;10.77;77.68;99170.88;5025108;28;20049;-81
2022/11/02 08:58:23;;;;;;;10.30;2.47;;;;;;;10.83;77.50;99188.59;5010523;28;20026;-81
2022/11/02 09:00:51;;;;;;;10.98;3.15;;;;;;;10.63;77.54;99154.34;5027925;28;20451;-82
2022/11/02 09:03:17;;;;;;;9.23;4.13;;;;;;;10.86;77.13;99186.25;5012264;28;20030;-81
2022/11/02 09:05:45;;;;;;;11.43;2.85;;;;;;;10.84;77.25;99179.53;5010570;28;20040;-82
2022/11/02 09:08:19;;;;;;;10.45;2.90;;;;;;;10.61;77.35;99150.31;5011790;28;20737;-82
2022/11/02 09:10:48;;;;;;;8.98;2.72;;;;;;;10.90;77.00;99189.25;5006472;28;20053;-82
2022/11/02 09:13:14;;;;;;;20.13;6.88;;;;;;;10.91;77.45;99197.03;5030342;28;20635;-82
2022/11/02 09:15:40;;;;;;;14.02;3.00;;;;;;;10.87;77.46;99211.91;5027622;28;20037;-81
2022/11/02 09:18:06;;;;;;;11.55;3.42;;;;;;;10.75;77.35;99184.44;5026811;28;20033;-82
2022/11/02 09:20:31;;;;;;;28.08;8.25;;;;;;;10.86;77.01;99196.94;5008500;28;20037;-81
2022/11/02 09:22:57;;;;;;;13.75;3.67;;;;;;;10.99;77.40;99215.31;5007799;28;20033;-82
2022/11/02 09:25:23;;;;;;;18.67;3.42;;;;;;;10.97;77.16;99217.41;5010790;28;20055;-82
2022/11/02 09:27:55;;;;;;;11.98;3.22;;;;;;;11.00;77.33;99213.44;5025969;28;20455;-82
2022/11/02 09:30:21;;;;;;;12.80;2.85;;;;;;;10.98;76.87;99220.91;5022030;28;20084;-82
2022/11/02 09:33:13;;;;;;;7.43;3.05;;;;;;;10.91;77.30;99210.38;5022234;28;20055;-82
2022/11/02 09:35:41;;;;;;;8.23;3.80;;;;;;;11.03;76.99;99229.78;5017837;28;20405;-82
2022/11/02 09:38:07;;;;;;;11.35;3.85;;;;;;;11.01;76.37;99215.88;5019716;28;20049;-82
2022/11/02 09:40:57;;;;;;;12.88;3.88;;;;;;;11.08;76.71;99227.22;5005132;28;20163;-82
2022/11/02 09:43:48;;;;;;;9.98;3.35;;;;;;;11.36;76.79;99245.03;4995535;28;20056;-82
2022/11/02 09:46:27;;;;;;;11.57;3.63;;;;;;;11.44;76.61;99249.97;5007952;28;20443;-82
2022/11/02 09:48:58;;;;;;;10.00;3.80;;;;;;;11.52;76.06;99235.38;5021891;28;20034;-82
2022/11/02 09:51:30;;;;;;;5.70;3.47;;;;;;;11.52;75.21;99228.19;5023651;28;20977;-82
2022/11/02 09:54:07;;;;;;;11.65;3.45;;;;;;;11.64;75.58;99244.13;5005140;28;20045;-82
2022/11/02 09:56:34;;;;;;;12.05;4.03;;;;;;;11.70;75.00;99241.31;5023261;28;20060;-82
2022/11/02 09:59:10;;;;;;;5.32;3.05;;;;;;;11.85;74.72;99254.91;5007598;28;20041;-82
2022/11/02 10:02:00;;;;;;;9.43;2.40;;;;;;;11.91;74.38;99242.38;5024965;28;20022;-82
2022/11/02 10:04:55;;;;;;;8.25;2.90;;;;;;;11.90;73.88;99240.78;5023960;28;20450;-82
2022/11/02 10:07:44;;;;;;;12.07;3.15;;;;;;;12.04;73.86;99252.72;5023376;28;20025;-82
2022/11/02 10:10:24;;;;;;;6.78;2.83;;;;;;;12.10;73.45;99250.94;5009530;28;20060;-82
2022/11/02 10:13:26;;;;;;;8.88;2.63;;;;;;;12.09;72.86;99257.34;5023836;28;20528;-82
2022/11/02 10:15:59;;;;;;;17.73;3.00;;;;;;;11.94;72.77;99237.38;5017353;28;20029;-82
2022/11/02 10:18:26;;;;;;;10.02;2.95;;;;;;;12.07;72.51;99252.25;5001240;28;20488;-82
2022/11/02 10:20:56;;;;;;;13.77;3.38;;;;;;;12.10;72.20;99245.59;5002643;28;20029;-83
2022/11/02 10:23:45;;;;;;;9.60;3.65;;;;;;;11.98;72.63;99246.50;5022793;28;20032;-83
2022/11/02 10:26:33;;;;;;;7.82;2.65;;;;;;;12.03;72.08;99251.91;5021256;28;20083;-82
2022/11/02 10:29:08;;;;;;;5.13;2.75;;;;;;;11.91;72.31;99253.91;5021301;28;20041;-81
2022/11/02 10:31:33;;;;;;;7.80;3.00;;;;;;;11.98;71.77;99257.22;5005920;28;20111;-82
2022/11/02 10:34:26;;;;;;;11.95;2.47;;;;;;;12.04;71.28;99252.72;5022415;28;20029;-82
2022/11/02 10:37:04;;;;;;;9.45;3.28;;;;;;;12.11;70.42;99245.34;5013286;28;20059;-82
2022/11/02 10:39:52;;;;;;;9.73;2.85;;;;;;;12.03;70.08;99237.75;5023587;28;20033;-82
2022/11/02 10:42:55;;;;;;;12.80;4.07;;;;;;;12.12;70.01;99262.22;5023001;28;20114;-82
2022/11/02 10:45:50;;;;;;;8.43;2.50;;;;;;;12.22;69.64;99262.31;5020876;28;20029;-82
2022/11/02 10:48:41;;;;;;;6.35;2.28;;;;;;;12.21;69.37;99253.47;5021806;28;20040;-82
2022/11/02 10:51:12;;;;;;;17.75;3.40;;;;;;;12.02;69.75;99254.84;5005791;28;20502;-82
2022/11/02 10:53:46;;;;;;;10.07;3.28;;;;;;;11.93;69.62;99225.03;5021631;28;20025;-81
2022/11/02 10:56:16;;;;;;;12.65;2.60;;;;;;;12.15;68.62;99245.63;5005826;28;20129;-82
2022/11/02 10:59:08;;;;;;;12.85;2.78;;;;;;;12.29;69.13;99242.34;5004465;28;20045;-82
2022/11/02 11:01:34;;;;;;;7.97;2.58;;;;;;;12.22;69.14;99256.97;5022383;28;20066;-82
2022/11/02 11:04:04;;;;;;;6.40;2.63;;;;;;;12.19;68.91;99271.66;5022973;28;20108;-82
2022/11/02 11:06:37;;;;;;;10.18;2.78;;;;;;;12.15;68.67;99253.66;5021302;28;20042;-82
2022/11/02 11:09:25;;;;;;;8.70;3.20;;;;;;;12.10;68.80;99250.94;5022329;28;20029;-82
2022/11/02 11:12:03;;;;;;;8.65;3.70;;;;;;;11.84;69.75;99229.19;5021915;28;20102;-82
2022/11/02 11:14:32;;;;;;;10.00;2.78;;;;;;;12.05;68.95;99249.00;4985373;28;20108;-82
2022/11/02 11:17:01;;;;;;;11.57;3.42;;;;;;;12.16;68.90;99272.16;5003976;28;20025;-82
2022/11/02 11:19:31;;;;;;;10.35;2.97;;;;;;;12.33;68.94;99277.44;5005168;28;20029;-82
2022/11/02 11:21:57;;;;;;;6.53;2.70;;;;;;;12.26;68.99;99263.44;5004522;28;20036;-81
2022/11/02 11:24:31;;;;;;;13.95;4.32;;;;;;;12.34;68.82;99279.09;5022585;28;20033;-82
2022/11/02 11:26:59;;;;;;;9.30;2.63;;;;;;;12.38;68.48;99283.69;4988483;28;20029;-82
2022/11/02 11:29:30;;;;;;;8.77;3.15;;;;;;;12.52;67.64;99270.72;5020824;28;20485;-82
2022/11/02 11:31:55;;;;;;;9.95;2.85;;;;;;;12.37;64.32;99263.31;5022356;28;20041;-82
2022/11/02 11:34:32;;;;;;;15.35;2.67;;;;;;;12.45;64.91;99270.13;5003710;28;20083;-82
2022/11/02 11:37:13;;;;;;;7.72;2.38;;;;;;;12.52;64.01;99273.41;5004828;28;20041;-82
2022/11/02 11:39:42;;;;;;;2.53;1.92;;;;;;;12.49;64.87;99255.97;5005035;28;20488;-82
2022/11/02 11:42:20;;;;;;;10.45;3.10;;;;;;;12.84;63.68;99286.88;5023365;28;20033;-82
2022/11/02 11:45:06;;;;;;;11.73;2.95;;;;;;;12.82;63.37;99270.25;5021473;28;20025;-82
2022/11/02 11:47:41;;;;;;;5.00;2.20;;;;;;;12.86;64.03;99272.19;5005094;28;20041;-82
2022/11/02 11:50:16;;;;;;;6.88;2.45;;;;;;;13.07;63.91;99270.53;5000370;28;20032;-81
2022/11/02 11:52:42;;;;;;;7.45;2.15;;;;;;;13.16;62.64;99291.25;5021210;28;20029;-82
2022/11/02 11:55:23;;;;;;;7.75;2.30;;;;;;;13.13;62.29;99291.75;5022362;28;20156;-82